Time;durP1;ratioP1;P1;durP2;ratioP2;P2;SDS_P1;SDS_P2;PMS_P1;PMS_P2;Temp;Humidity;BMP_temperature;BMP_pressure;BME280_temperature;BME280_humidity;BME280_pressure;Samples;Min_cycle;Max_cycle;Signal;HPM_P1;HPM_P2
2022/05/01 00:00:26;;;;;;;358.70;106.83;;;;;;;;;;5074648;28;20452;-71
2022/05/01 00:02:53;;;;;;;292.10;107.87;;;;;;;;;;5074914;28;21065;-71
2022/05/01 00:05:23;;;;;;;290.27;99.40;;;;;;;;;;5074775;28;20582;-71
2022/05/01 00:07:51;;;;;;;312.77;105.20;;;;;;;;;;5075275;28;20462;-72
2022/05/01 00:10:19;;;;;;;323.87;104.50;;;;;;;;;;5074803;28;20624;-71
2022/05/01 00:12:48;;;;;;;290.03;100.07;;;;;;;;;;5075080;28;20859;-72
2022/05/01 00:15:16;;;;;;;304.67;106.30;;;;;;;;;;5074379;28;20444;-71
2022/05/01 00:17:44;;;;;;;342.27;110.47;;;;;;;;;;5075093;28;20585;-71
2022/05/01 00:20:12;;;;;;;347.37;109.17;;;;;;;;;;5074016;28;20457;-71
2022/05/01 00:22:39;;;;;;;317.07;112.87;;;;;;;;;;5075684;28;20463;-70
2022/05/01 00:25:07;;;;;;;316.93;105.20;;;;;;;;;;5078121;28;20976;-72
2022/05/01 00:27:35;;;;;;;316.13;104.87;;;;;;;;;;5078695;28;20460;-72
2022/05/01 00:30:04;;;;;;;353.00;106.90;;;;;;;;;;5078503;28;20860;-71
2022/05/01 00:36:25;;;;;;;317.17;103.17;;;;;;;;;;5078334;28;20468;-72
2022/05/01 00:38:04;;;;;;;255.67;99.83;;;;;;;;;;5078908;28;20435;-71
2022/05/01 00:40:32;;;;;;;245.67;95.50;;;;;;;;;;5077805;28;20517;-71
2022/05/01 00:43:03;;;;;;;301.87;99.23;;;;;;;;;;5077876;28;20810;-71
2022/05/01 00:45:33;;;;;;;275.83;95.53;;;;;;;;;;5077359;28;20484;-71
2022/05/01 00:48:01;;;;;;;311.57;98.87;;;;;;;;;;5077384;28;20877;-71
2022/05/01 00:50:29;;;;;;;361.27;110.87;;;;;;;;;;5078342;28;20452;-71
2022/05/01 00:52:56;;;;;;;302.70;100.37;;;;;;;;;;5077531;28;20461;-71
2022/05/01 00:55:24;;;;;;;335.60;100.90;;;;;;;;;;5078123;28;20445;-70
2022/05/01 00:57:52;;;;;;;317.07;99.07;;;;;;;;;;5077522;28;20578;-70
2022/05/01 01:00:20;;;;;;;346.33;107.63;;;;;;;;;;5077203;28;20535;-70
2022/05/01 01:02:50;;;;;;;358.80;106.97;;;;;;;;;;5078469;28;20803;-70
2022/05/01 01:05:18;;;;;;;349.53;105.60;;;;;;;;;;5078241;28;20502;-70
2022/05/01 01:07:45;;;;;;;349.93;105.90;;;;;;;;;;5078691;28;20456;-70
2022/05/01 01:10:13;;;;;;;344.07;98.17;;;;;;;;;;5078014;28;20499;-70
2022/05/01 01:12:56;;;;;;;322.97;105.37;;;;;;;;;;5078404;28;20468;-70
2022/05/01 01:15:25;;;;;;;340.03;97.20;;;;;;;;;;5077890;28;20509;-70
2022/05/01 01:17:58;;;;;;;296.77;104.40;;;;;;;;;;5078032;28;20459;-71
2022/05/01 01:20:27;;;;;;;343.87;99.50;;;;;;;;;;5077718;28;20872;-70
2022/05/01 01:22:57;;;;;;;358.63;102.10;;;;;;;;;;5077369;28;20921;-70
2022/05/01 01:25:26;;;;;;;362.30;106.37;;;;;;;;;;5078194;28;20491;-70
2022/05/01 01:27:55;;;;;;;346.90;105.57;;;;;;;;;;5077617;28;20789;-70
2022/05/01 01:33:08;;;;;;;353.43;106.87;;;;;;;;;;5077388;28;20439;-70
2022/05/01 01:35:38;;;;;;;349.10;105.90;;;;;;;;;;5077260;28;20861;-70
2022/05/01 01:38:07;;;;;;;363.27;107.70;;;;;;;;;;5077432;28;20525;-70
2022/05/01 01:40:39;;;;;;;362.00;105.37;;;;;;;;;;5077741;28;20452;-70
2022/05/01 01:43:07;;;;;;;368.10;110.43;;;;;;;;;;5077437;28;20551;-70
2022/05/01 01:45:35;;;;;;;359.60;107.97;;;;;;;;;;5077506;28;20496;-71
2022/05/01 01:48:10;;;;;;;362.47;102.77;;;;;;;;;;5077986;28;20935;-70
2022/05/01 01:50:38;;;;;;;328.93;101.77;;;;;;;;;;5077655;28;20455;-71
2022/05/01 01:53:07;;;;;;;364.40;110.50;;;;;;;;;;5077027;28;20871;-72
2022/05/01 01:55:36;;;;;;;353.90;102.50;;;;;;;;;;5077065;28;20845;-71
2022/05/01 01:58:04;;;;;;;364.97;103.20;;;;;;;;;;5077042;28;20472;-71
2022/05/01 02:00:32;;;;;;;344.67;99.03;;;;;;;;;;5077131;28;20482;-71
2022/05/01 02:03:00;;;;;;;367.80;106.27;;;;;;;;;;5077304;28;20456;-71
2022/05/01 02:05:28;;;;;;;354.67;100.00;;;;;;;;;;5077119;28;20551;-71
2022/05/01 02:07:56;;;;;;;372.70;109.30;;;;;;;;;;5077698;28;20471;-71
2022/05/01 02:10:26;;;;;;;347.37;105.57;;;;;;;;;;5076919;28;20732;-71
2022/05/01 02:12:54;;;;;;;367.23;107.60;;;;;;;;;;5077402;28;20461;-71
2022/05/01 02:15:22;;;;;;;354.97;103.97;;;;;;;;;;5076756;28;20543;-71
2022/05/01 02:17:50;;;;;;;356.97;104.10;;;;;;;;;;5077166;28;20456;-71
2022/05/01 02:20:18;;;;;;;351.53;112.57;;;;;;;;;;5076330;28;20551;-71
2022/05/01 02:22:46;;;;;;;331.87;103.23;;;;;;;;;;5076789;28;20479;-71
2022/05/01 02:25:14;;;;;;;348.00;101.03;;;;;;;;;;5076609;28;20571;-71
2022/05/01 02:27:43;;;;;;;356.67;106.63;;;;;;;;;;5077006;28;20460;-71
2022/05/01 02:30:11;;;;;;;355.60;109.60;;;;;;;;;;5076673;28;20729;-71
2022/05/01 02:32:39;;;;;;;307.97;99.50;;;;;;;;;;5076237;28;20879;-71
2022/05/01 02:35:07;;;;;;;335.50;104.97;;;;;;;;;;5075834;28;20464;-71
2022/05/01 02:37:34;;;;;;;361.97;116.17;;;;;;;;;;5075750;28;20460;-71
2022/05/01 02:40:05;;;;;;;359.47;105.57;;;;;;;;;;5074500;28;20455;-70
2022/05/01 02:42:33;;;;;;;352.37;113.87;;;;;;;;;;5075633;28;20872;-70
2022/05/01 02:45:02;;;;;;;349.37;110.77;;;;;;;;;;5075205;28;20467;-70
2022/05/01 02:47:30;;;;;;;322.60;102.67;;;;;;;;;;5075546;28;20459;-70
2022/05/01 02:49:58;;;;;;;331.50;108.03;;;;;;;;;;5074988;28;20502;-70
2022/05/01 02:52:26;;;;;;;328.33;111.10;;;;;;;;;;5074764;28;20542;-71
2022/05/01 02:54:53;;;;;;;322.60;105.83;;;;;;;;;;5075859;28;20452;-70
2022/05/01 02:57:22;;;;;;;335.53;102.70;;;;;;;;;;5076004;28;20460;-70
2022/05/01 02:59:49;;;;;;;335.43;99.97;;;;;;;;;;5076136;28;20479;-70
2022/05/01 03:02:19;;;;;;;321.03;108.87;;;;;;;;;;5075484;28;20455;-71
2022/05/01 03:04:46;;;;;;;324.60;105.17;;;;;;;;;;5076019;28;20449;-71
2022/05/01 03:07:15;;;;;;;318.10;98.43;;;;;;;;;;5075649;28;20496;-71
2022/05/01 03:09:43;;;;;;;323.43;98.83;;;;;;;;;;5076280;28;20724;-71
2022/05/01 03:12:11;;;;;;;314.07;100.63;;;;;;;;;;5075860;28;20538;-71
2022/05/01 03:14:39;;;;;;;316.87;101.07;;;;;;;;;;5075802;28;20472;-71
2022/05/01 03:17:07;;;;;;;314.60;101.90;;;;;;;;;;5075733;28;20860;-72
2022/05/01 03:22:24;;;;;;;310.07;97.37;;;;;;;;;;5075769;28;20443;-71
2022/05/01 03:24:51;;;;;;;320.57;101.20;;;;;;;;;;5075514;28;20864;-72
2022/05/01 03:27:19;;;;;;;328.20;107.10;;;;;;;;;;5075726;28;20499;-71
2022/05/01 03:30:15;;;;;;;320.57;102.47;;;;;;;;;;5074670;28;20484;-71
2022/05/01 03:32:35;;;;;;;350.47;102.63;;;;;;;;;;5075178;28;20546;-71
2022/05/01 03:35:05;;;;;;;319.40;96.47;;;;;;;;;;5075300;28;20836;-71
2022/05/01 03:37:48;;;;;;;359.00;106.97;;;;;;;;;;5074749;28;20464;-72
2022/05/01 03:40:17;;;;;;;297.53;103.07;;;;;;;;;;5072949;28;20488;-71
2022/05/01 03:42:45;;;;;;;347.77;102.87;;;;;;;;;;5075089;28;20463;-71
2022/05/01 03:45:13;;;;;;;332.67;105.73;;;;;;;;;;5075105;28;20484;-71
2022/05/01 03:47:41;;;;;;;342.60;100.50;;;;;;;;;;5074897;28;20746;-71
2022/05/01 03:50:10;;;;;;;338.80;101.20;;;;;;;;;;5074177;28;20445;-71
2022/05/01 03:52:38;;;;;;;339.67;105.97;;;;;;;;;;5074667;28;20947;-71
2022/05/01 03:55:07;;;;;;;344.10;105.63;;;;;;;;;;5075211;28;20448;-71
2022/05/01 03:57:35;;;;;;;358.03;103.97;;;;;;;;;;5073793;28;20452;-71
2022/05/01 04:00:02;;;;;;;361.33;108.70;;;;;;;;;;5074859;28;20472;-71
2022/05/01 04:02:33;;;;;;;329.40;99.47;;;;;;;;;;5074768;28;20465;-71
2022/05/01 04:05:00;;;;;;;341.07;103.33;;;;;;;;;;5074857;28;20445;-71
2022/05/01 04:07:30;;;;;;;360.77;104.87;;;;;;;;;;5074548;28;20587;-71
2022/05/01 04:09:58;;;;;;;344.27;100.30;;;;;;;;;;5074942;28;20555;-71
2022/05/01 04:12:26;;;;;;;337.73;100.13;;;;;;;;;;5075141;28;20759;-71
2022/05/01 04:14:54;;;;;;;354.73;103.67;;;;;;;;;;5074865;28;20527;-71
2022/05/01 04:17:22;;;;;;;350.27;109.23;;;;;;;;;;5074557;28;20451;-71
2022/05/01 04:19:49;;;;;;;330.00;96.20;;;;;;;;;;5074610;28;20467;-71
2022/05/01 04:22:17;;;;;;;344.83;102.67;;;;;;;;;;5074726;28;20475;-71
2022/05/01 04:24:46;;;;;;;349.97;99.87;;;;;;;;;;5074786;28;20541;-71
2022/05/01 04:27:17;;;;;;;332.13;99.10;;;;;;;;;;5074372;28;20488;-71
2022/05/01 04:29:44;;;;;;;354.90;104.00;;;;;;;;;;5074411;28;20778;-71
2022/05/01 04:32:16;;;;;;;254.87;97.30;;;;;;;;;;5074684;28;20460;-71
2022/05/01 04:34:44;;;;;;;338.30;99.90;;;;;;;;;;5074211;28;20857;-71
2022/05/01 04:37:11;;;;;;;338.10;104.67;;;;;;;;;;5074516;28;20452;-71
2022/05/01 04:39:39;;;;;;;340.83;102.00;;;;;;;;;;5075234;28;20543;-71
2022/05/01 04:42:09;;;;;;;338.47;99.97;;;;;;;;;;5074268;28;20467;-71
2022/05/01 04:44:36;;;;;;;345.70;101.97;;;;;;;;;;5074702;28;20456;-71
2022/05/01 04:47:05;;;;;;;322.20;98.87;;;;;;;;;;5074585;28;20484;-71
2022/05/01 04:49:32;;;;;;;292.47;98.17;;;;;;;;;;5074800;28;20445;-71
2022/05/01 04:52:03;;;;;;;287.77;97.53;;;;;;;;;;5073686;28;20585;-71
2022/05/01 04:54:30;;;;;;;352.93;100.93;;;;;;;;;;5075069;28;20857;-72
2022/05/01 04:57:09;;;;;;;344.90;108.30;;;;;;;;;;5074418;28;20448;-70
2022/05/01 04:59:38;;;;;;;351.73;108.47;;;;;;;;;;5073246;28;20552;-70
2022/05/01 05:02:06;;;;;;;357.60;105.83;;;;;;;;;;5073905;28;20468;-71
2022/05/01 05:04:33;;;;;;;321.13;101.97;;;;;;;;;;5074293;28;20700;-71
2022/05/01 05:07:03;;;;;;;345.93;106.63;;;;;;;;;;5073785;28;20484;-71
2022/05/01 05:12:16;;;;;;;350.97;99.67;;;;;;;;;;5078022;28;20547;-71
2022/05/01 05:14:47;;;;;;;369.43;106.70;;;;;;;;;;5077884;28;20881;-71
2022/05/01 05:17:18;;;;;;;348.87;104.17;;;;;;;;;;5078101;28;20452;-71
2022/05/01 05:19:45;;;;;;;354.87;106.03;;;;;;;;;;5077458;28;20429;-71
2022/05/01 05:22:13;;;;;;;336.57;101.17;;;;;;;;;;5077808;28;20448;-71
2022/05/01 05:24:41;;;;;;;346.47;98.90;;;;;;;;;;5077800;28;20728;-71
2022/05/01 05:27:08;;;;;;;338.50;95.10;;;;;;;;;;5077632;28;20488;-71
2022/05/01 05:29:36;;;;;;;337.40;100.37;;;;;;;;;;5077751;28;20468;-71
2022/05/01 05:32:06;;;;;;;323.77;96.57;;;;;;;;;;5077635;28;20809;-71
2022/05/01 05:34:33;;;;;;;331.50;98.93;;;;;;;;;;5078089;28;20449;-71
2022/05/01 05:37:01;;;;;;;341.93;104.47;;;;;;;;;;5077412;28;21023;-71
2022/05/01 05:39:28;;;;;;;332.17;98.20;;;;;;;;;;5077698;28;20455;-71
2022/05/01 05:41:56;;;;;;;351.97;103.97;;;;;;;;;;5077250;28;20459;-71
2022/05/01 05:44:24;;;;;;;359.97;102.53;;;;;;;;;;5077370;28;20469;-71
2022/05/01 05:46:51;;;;;;;355.07;103.77;;;;;;;;;;5077469;28;20484;-71
2022/05/01 05:49:21;;;;;;;356.83;106.90;;;;;;;;;;5076847;28;20459;-71
2022/05/01 05:51:49;;;;;;;346.33;100.90;;;;;;;;;;5077232;28;20471;-71
2022/05/01 05:54:19;;;;;;;327.47;101.00;;;;;;;;;;5077154;28;20453;-71
2022/05/01 05:56:47;;;;;;;360.93;99.37;;;;;;;;;;5076183;28;20536;-71
2022/05/01 05:59:15;;;;;;;343.33;98.77;;;;;;;;;;5076583;28;20456;-71
2022/05/01 06:01:49;;;;;;;375.07;102.60;;;;;;;;;;5077136;28;20504;-70
2022/05/01 06:04:17;;;;;;;267.07;126.93;;;;;;;;;;5076723;28;20466;-71
2022/05/01 06:06:45;;;;;;;339.20;108.53;;;;;;;;;;5077541;28;20488;-71
2022/05/01 06:09:13;;;;;;;296.17;102.10;;;;;;;;;;5079290;28;20452;-70
2022/05/01 06:11:41;;;;;;;344.37;104.77;;;;;;;;;;5081798;28;20454;-70
2022/05/01 06:14:09;;;;;;;347.87;103.97;;;;;;;;;;5076708;28;20565;-70
2022/05/01 06:16:38;;;;;;;305.67;111.17;;;;;;;;;;5076290;28;20486;-70
2022/05/01 06:19:05;;;;;;;325.57;111.40;;;;;;;;;;5075550;28;20844;-71
2022/05/01 06:21:33;;;;;;;297.57;109.80;;;;;;;;;;5074945;28;20525;-70
2022/05/01 06:24:02;;;;;;;298.20;106.13;;;;;;;;;;5074949;28;20510;-70
2022/05/01 06:26:30;;;;;;;302.83;102.57;;;;;;;;;;5075211;28;20585;-70
2022/05/01 06:28:59;;;;;;;305.07;110.87;;;;;;;;;;5074671;28;20457;-71
2022/05/01 06:31:29;;;;;;;304.27;111.53;;;;;;;;;;5075517;28;20933;-70
2022/05/01 06:33:58;;;;;;;291.13;100.77;;;;;;;;;;5075438;28;20456;-71
2022/05/01 06:36:25;;;;;;;328.83;100.80;;;;;;;;;;5075681;28;20797;-71
2022/05/01 06:38:53;;;;;;;336.33;108.77;;;;;;;;;;5075319;28;20470;-71
2022/05/01 06:41:22;;;;;;;325.67;105.40;;;;;;;;;;5076144;28;20515;-71
2022/05/01 06:43:50;;;;;;;272.70;107.47;;;;;;;;;;5074877;28;21063;-71
2022/05/01 06:46:18;;;;;;;316.77;106.53;;;;;;;;;;5075756;28;20468;-71
2022/05/01 06:48:46;;;;;;;355.83;107.30;;;;;;;;;;5075232;28;20467;-71
2022/05/01 06:51:14;;;;;;;358.40;116.93;;;;;;;;;;5076403;28;20449;-71
2022/05/01 06:53:42;;;;;;;369.60;108.50;;;;;;;;;;5075408;28;20460;-71
2022/05/01 06:56:09;;;;;;;365.50;108.00;;;;;;;;;;5074846;28;20447;-72
2022/05/01 06:58:38;;;;;;;370.17;110.33;;;;;;;;;;5074517;28;20457;-71
2022/05/01 07:01:07;;;;;;;379.73;116.70;;;;;;;;;;5074625;28;20445;-70
2022/05/01 07:03:40;;;;;;;379.50;116.63;;;;;;;;;;5075159;28;20543;-73
2022/05/01 07:06:08;;;;;;;348.20;111.97;;;;;;;;;;5082656;28;20968;-71
2022/05/01 07:08:36;;;;;;;307.67;110.53;;;;;;;;;;5075441;28;20492;-71
2022/05/01 07:11:07;;;;;;;319.03;119.57;;;;;;;;;;5075018;28;20906;-72
2022/05/01 07:13:36;;;;;;;344.63;108.77;;;;;;;;;;5074027;28;20460;-71
2022/05/01 07:16:08;;;;;;;352.03;116.37;;;;;;;;;;5073731;28;20510;-70
2022/05/01 07:18:36;;;;;;;367.57;112.80;;;;;;;;;;5073544;28;20535;-70
2022/05/01 07:21:05;;;;;;;370.50;116.50;;;;;;;;;;5073734;28;20475;-70
2022/05/01 07:23:34;;;;;;;365.87;112.27;;;;;;;;;;5074353;28;20449;-70
2022/05/01 07:26:06;;;;;;;377.27;119.03;;;;;;;;;;5074462;28;20440;-71
2022/05/01 07:28:34;;;;;;;391.33;126.53;;;;;;;;;;5073970;28;20469;-70
2022/05/01 07:31:04;;;;;;;262.93;116.93;;;;;;;;;;5080360;28;20512;-70
2022/05/01 07:33:33;;;;;;;370.67;114.17;;;;;;;;;;5074066;28;20471;-71
2022/05/01 07:36:01;;;;;;;343.67;110.60;;;;;;;;;;5074722;28;20519;-71
2022/05/01 07:38:29;;;;;;;365.97;116.80;;;;;;;;;;5073716;28;20455;-71
2022/05/01 07:40:58;;;;;;;362.27;106.63;;;;;;;;;;5073566;28;20461;-71
2022/05/01 07:43:29;;;;;;;319.60;122.30;;;;;;;;;;5065607;28;20452;-70
2022/05/01 07:45:57;;;;;;;378.37;117.63;;;;;;;;;;5074836;28;20448;-70
2022/05/01 07:48:24;;;;;;;378.67;116.33;;;;;;;;;;5073445;28;20484;-71
2022/05/01 07:50:53;;;;;;;386.37;120.27;;;;;;;;;;5073843;28;20549;-70
2022/05/01 07:53:22;;;;;;;379.80;120.40;;;;;;;;;;5073238;28;20809;-70
2022/05/01 07:55:49;;;;;;;372.27;111.07;;;;;;;;;;5073654;28;20644;-70
2022/05/01 07:58:19;;;;;;;375.73;120.23;;;;;;;;;;5074106;28;20476;-71
2022/05/01 08:00:49;;;;;;;370.20;110.17;;;;;;;;;;5074158;28;20541;-70
2022/05/01 08:06:09;;;;;;;371.33;115.07;;;;;;;;;;5073119;28;20450;-72
2022/05/01 08:08:36;;;;;;;363.47;107.43;;;;;;;;;;5073314;28;20810;-71
2022/05/01 08:11:05;;;;;;;378.53;123.43;;;;;;;;;;5073903;28;20449;-71
2022/05/01 08:13:33;;;;;;;377.80;119.40;;;;;;;;;;5073104;28;20464;-70
2022/05/01 08:16:01;;;;;;;373.60;116.77;;;;;;;;;;5072944;28;20524;-70
2022/05/01 08:21:16;;;;;;;385.53;124.37;;;;;;;;;;5072902;28;20829;-70
2022/05/01 08:23:43;;;;;;;353.43;121.30;;;;;;;;;;5072528;28;20456;-70
2022/05/01 08:26:13;;;;;;;378.87;122.77;;;;;;;;;;5072250;28;20502;-70
2022/05/01 08:28:41;;;;;;;385.83;129.17;;;;;;;;;;5073026;28;20545;-70
2022/05/01 08:31:10;;;;;;;353.73;128.80;;;;;;;;;;5073451;28;20757;-70
2022/05/01 08:33:38;;;;;;;355.33;125.73;;;;;;;;;;5064508;28;20457;-70
2022/05/01 08:36:06;;;;;;;382.53;125.67;;;;;;;;;;5073364;28;20448;-70
2022/05/01 08:38:37;;;;;;;377.53;123.23;;;;;;;;;;5073157;28;20457;-70
2022/05/01 08:41:06;;;;;;;383.10;126.43;;;;;;;;;;5073735;28;20523;-70
2022/05/01 08:43:34;;;;;;;381.20;122.30;;;;;;;;;;5073580;28;20472;-70
2022/05/01 08:46:18;;;;;;;390.17;134.40;;;;;;;;;;5076877;28;20444;-70
2022/05/01 08:48:54;;;;;;;381.10;127.03;;;;;;;;;;5076256;28;20847;-69
2022/05/01 08:51:23;;;;;;;383.80;132.03;;;;;;;;;;5076051;28;20448;-70
2022/05/01 08:53:52;;;;;;;389.27;133.67;;;;;;;;;;5076757;28;20445;-69
2022/05/01 08:56:20;;;;;;;387.30;131.30;;;;;;;;;;5076406;28;20868;-69
2022/05/01 08:58:48;;;;;;;389.10;137.47;;;;;;;;;;5076538;28;20465;-71
2022/05/01 09:01:17;;;;;;;267.80;139.80;;;;;;;;;;5077184;28;20462;-71
2022/05/01 09:03:58;;;;;;;309.93;162.87;;;;;;;;;;5078598;28;20452;-70
2022/05/01 09:06:44;;;;;;;352.30;144.87;;;;;;;;;;5078329;28;20444;-70
2022/05/01 09:09:17;;;;;;;386.47;141.17;;;;;;;;;;5088224;28;20916;-71
2022/05/01 09:14:35;;;;;;;349.17;144.00;;;;;;;;;;5085506;28;20434;-70
2022/05/01 09:17:19;;;;;;;359.00;136.57;;;;;;;;;;5080153;28;20447;-71
2022/05/01 09:19:48;;;;;;;331.63;146.07;;;;;;;;;;5080456;28;20464;-70
2022/05/01 09:22:16;;;;;;;346.63;142.63;;;;;;;;;;5088063;28;20456;-71
2022/05/01 09:24:45;;;;;;;342.80;150.77;;;;;;;;;;5077646;28;20456;-71
2022/05/01 09:27:29;;;;;;;347.13;140.50;;;;;;;;;;5075905;28;20441;-72
2022/05/01 09:30:21;;;;;;;379.07;142.87;;;;;;;;;;5084265;28;20478;-72
2022/05/01 09:32:58;;;;;;;295.27;146.37;;;;;;;;;;5076619;28;20845;-70
2022/05/01 09:35:54;;;;;;;363.83;157.93;;;;;;;;;;5082972;28;20474;-71
2022/05/01 09:38:28;;;;;;;392.40;149.20;;;;;;;;;;5076367;28;20468;-71
2022/05/01 09:41:00;;;;;;;360.17;161.00;;;;;;;;;;5075228;28;20456;-71
2022/05/01 09:43:49;;;;;;;403.17;178.53;;;;;;;;;;5077595;28;20460;-71
2022/05/01 09:46:24;;;;;;;377.80;187.93;;;;;;;;;;5070399;28;20533;-71
2022/05/01 09:49:02;;;;;;;364.30;186.00;;;;;;;;;;5076782;28;20576;-70
2022/05/01 09:51:34;;;;;;;338.63;187.30;;;;;;;;;;5076842;28;20462;-71
2022/05/01 09:54:02;;;;;;;306.53;202.50;;;;;;;;;;5076522;28;20873;-71
2022/05/01 09:56:46;;;;;;;363.97;211.67;;;;;;;;;;5072726;28;20606;-72
2022/05/01 09:59:15;;;;;;;367.10;192.37;;;;;;;;;;5069032;28;20469;-71
2022/05/01 10:01:56;;;;;;;287.90;197.07;;;;;;;;;;5076324;28;20460;-71
2022/05/01 10:04:24;;;;;;;282.97;202.50;;;;;;;;;;5070603;28;20441;-71
2022/05/01 10:06:54;;;;;;;262.50;177.80;;;;;;;;;;5081614;28;20461;-72
2022/05/01 10:09:22;;;;;;;256.20;194.37;;;;;;;;;;5076532;28;20480;-72
2022/05/01 10:12:10;;;;;;;274.07;201.07;;;;;;;;;;5076287;28;20479;-71
2022/05/01 10:14:42;;;;;;;261.20;194.07;;;;;;;;;;5073291;28;20723;-72
2022/05/01 10:17:17;;;;;;;258.37;207.73;;;;;;;;;;5077134;28;20463;-72
2022/05/01 10:19:45;;;;;;;252.37;163.17;;;;;;;;;;5076100;28;20464;-72
2022/05/01 10:22:16;;;;;;;283.47;191.60;;;;;;;;;;5070066;28;20514;-72
2022/05/01 10:24:47;;;;;;;251.87;171.00;;;;;;;;;;5078950;28;20533;-72
2022/05/01 10:27:29;;;;;;;358.50;187.03;;;;;;;;;;5068332;28;20552;-72
2022/05/01 10:33:08;;;;;;;398.33;174.70;;;;;;;;;;5082685;28;20412;-73
2022/05/01 10:35:46;;;;;;;397.33;161.47;;;;;;;;;;5075409;28;20455;-72
2022/05/01 10:38:21;;;;;;;396.33;152.60;;;;;;;;;;5080261;28;20436;-72
2022/05/01 10:40:51;;;;;;;397.00;166.27;;;;;;;;;;5076158;28;20459;-72
2022/05/01 10:43:38;;;;;;;399.67;168.07;;;;;;;;;;5068111;28;20459;-72
2022/05/01 10:46:25;;;;;;;389.03;152.23;;;;;;;;;;5075795;28;21059;-72
2022/05/01 10:48:55;;;;;;;341.73;174.53;;;;;;;;;;5075647;28;20484;-72
2022/05/01 10:51:41;;;;;;;394.50;166.67;;;;;;;;;;5070253;28;20460;-72
2022/05/01 10:54:30;;;;;;;393.00;154.30;;;;;;;;;;5074697;28;20452;-72
2022/05/01 10:57:08;;;;;;;395.77;153.57;;;;;;;;;;5074711;28;20457;-72
2022/05/01 10:59:39;;;;;;;411.57;174.67;;;;;;;;;;5075337;28;20457;-72
2022/05/01 11:02:10;;;;;;;333.20;172.50;;;;;;;;;;5074683;28;20594;-72
2022/05/01 11:04:42;;;;;;;385.47;157.17;;;;;;;;;;5068986;28;20510;-73
2022/05/01 11:07:11;;;;;;;333.70;185.07;;;;;;;;;;5073454;28;20480;-71
2022/05/01 11:09:39;;;;;;;358.90;180.70;;;;;;;;;;5074994;28;20487;-71
2022/05/01 11:12:13;;;;;;;376.87;208.30;;;;;;;;;;5074929;28;20552;-72
2022/05/01 11:14:54;;;;;;;363.13;189.23;;;;;;;;;;5079019;28;20823;-73
2022/05/01 11:17:33;;;;;;;383.03;206.90;;;;;;;;;;5085386;28;20457;-72
2022/05/01 11:22:52;;;;;;;327.73;178.73;;;;;;;;;;5060704;28;20598;-73
2022/05/01 11:25:23;;;;;;;351.47;182.97;;;;;;;;;;5075606;28;20460;-73
2022/05/01 11:27:58;;;;;;;362.13;204.43;;;;;;;;;;5074925;28;20448;-73
2022/05/01 11:30:53;;;;;;;356.73;199.53;;;;;;;;;;5078340;28;20482;-73
2022/05/01 11:33:32;;;;;;;371.60;212.40;;;;;;;;;;5074529;28;20598;-72
2022/05/01 11:36:09;;;;;;;379.90;210.87;;;;;;;;;;5075498;28;20860;-73
2022/05/01 11:41:51;;;;;;;344.60;191.93;;;;;;;;;;5075826;28;20556;-72
2022/05/01 11:44:57;;;;;;;354.90;242.43;;;;;;;;;;5075506;28;20482;-72
2022/05/01 11:48:14;;;;;;;359.47;220.37;;;;;;;;;;5072017;28;20500;-72
2022/05/01 11:50:44;;;;;;;252.00;218.93;;;;;;;;;;5081037;28;20451;-72
2022/05/01 11:53:19;;;;;;;261.97;211.63;;;;;;;;;;5079026;28;20997;-71
2022/05/01 12:04:38;;;;;;;284.27;237.17;;;;;;;;;;5071811;28;21138;-71
2022/05/01 12:07:23;;;;;;;;;;;;;;;;;;;;;
2022/05/01 12:09:53;;;;;;;320.33;229.80;;;;;;;;;;5070730;28;20484;-71
2022/05/01 12:12:36;;;;;;;304.67;198.07;;;;;;;;;;5072875;28;20529;-71
2022/05/01 12:15:10;;;;;;;308.40;202.00;;;;;;;;;;5073775;28;20459;-71
2022/05/01 12:17:45;;;;;;;342.47;232.73;;;;;;;;;;5071971;28;20982;-72
2022/05/01 12:20:15;;;;;;;400.67;205.73;;;;;;;;;;5072949;28;20493;-71
2022/05/01 12:23:04;;;;;;;375.00;181.63;;;;;;;;;;5073479;28;20741;-72
2022/05/01 12:25:42;;;;;;;379.97;230.33;;;;;;;;;;5074274;28;20828;-71
2022/05/01 12:28:18;;;;;;;394.83;193.07;;;;;;;;;;5073996;28;20512;-71
2022/05/01 12:31:16;;;;;;;405.97;219.27;;;;;;;;;;5075544;28;20460;-72
2022/05/01 12:36:58;;;;;;;393.47;192.47;;;;;;;;;;5088408;28;20452;-71
2022/05/01 12:45:17;;;;;;;345.33;193.40;;;;;;;;;;5072703;28;20427;-71
2022/05/01 12:47:46;;;;;;;319.37;204.27;;;;;;;;;;5074289;28;20748;-71
2022/05/01 12:50:27;;;;;;;270.87;178.17;;;;;;;;;;5072943;28;20479;-72
2022/05/01 12:53:07;;;;;;;339.40;206.07;;;;;;;;;;5074133;28;20866;-71
2022/05/01 12:56:05;;;;;;;337.93;206.47;;;;;;;;;;5073203;28;20455;-72
2022/05/01 12:58:43;;;;;;;327.93;182.13;;;;;;;;;;5072437;28;20445;-71
2022/05/01 13:01:38;;;;;;;340.70;222.10;;;;;;;;;;5073040;28;20477;-71
2022/05/01 13:07:31;;;;;;;270.63;202.40;;;;;;;;;;5022265;28;20491;-71
2022/05/01 13:10:31;;;;;;;272.40;216.17;;;;;;;;;;5072062;28;20492;-71
2022/05/01 13:13:27;;;;;;;261.33;227.20;;;;;;;;;;5051961;28;20430;-71
2022/05/01 13:16:16;;;;;;;241.37;202.63;;;;;;;;;;4952838;28;20454;-71
2022/05/01 13:19:14;;;;;;;274.83;240.57;;;;;;;;;;4956530;28;20453;-71
2022/05/01 13:22:08;;;;;;;263.87;220.57;;;;;;;;;;5067676;28;20939;-71
2022/05/01 13:24:53;;;;;;;;;;;;;;;;;;;;;
2022/05/01 13:33:26;;;;;;;272.13;219.43;;;;;;;;;;5056064;28;20461;-72
2022/05/01 13:47:09;;;;;;;266.97;227.57;;;;;;;;;;5064294;28;20463;-73
2022/05/01 13:49:39;;;;;;;263.87;236.73;;;;;;;;;;5075751;28;20549;-73
2022/05/01 13:52:08;;;;;;;291.50;265.33;;;;;;;;;;5075907;28;20809;-73
2022/05/01 13:54:37;;;;;;;295.90;269.50;;;;;;;;;;5077034;28;20521;-72
2022/05/01 13:57:08;;;;;;;272.93;235.20;;;;;;;;;;5076975;28;20490;-72
2022/05/01 13:59:35;;;;;;;292.87;246.67;;;;;;;;;;5075463;28;20787;-72
2022/05/01 14:02:12;;;;;;;267.23;240.27;;;;;;;;;;5074458;28;20452;-72
2022/05/01 14:04:46;;;;;;;268.17;238.90;;;;;;;;;;5074332;28;20484;-72
2022/05/01 14:07:14;;;;;;;250.47;223.33;;;;;;;;;;5075037;28;20758;-72
2022/05/01 14:09:43;;;;;;;272.77;214.73;;;;;;;;;;5074081;28;20492;-72
2022/05/01 14:12:11;;;;;;;250.23;231.17;;;;;;;;;;5079302;28;20456;-72
2022/05/01 14:14:40;;;;;;;202.63;187.27;;;;;;;;;;5074951;28;20472;-72
2022/05/01 14:17:11;;;;;;;253.47;221.27;;;;;;;;;;5074636;28;20539;-72
2022/05/01 14:19:42;;;;;;;254.07;228.43;;;;;;;;;;5076345;28;20433;-72
2022/05/01 14:22:15;;;;;;;257.77;230.07;;;;;;;;;;5076110;28;20860;-72
2022/05/01 14:24:46;;;;;;;248.37;221.67;;;;;;;;;;5075336;28;20460;-73
2022/05/01 14:27:14;;;;;;;317.53;213.30;;;;;;;;;;5075745;28;20903;-73
2022/05/01 14:29:43;;;;;;;323.97;194.37;;;;;;;;;;5075369;28;20481;-72
2022/05/01 14:38:24;;;;;;;353.17;223.77;;;;;;;;;;5071093;28;20473;-72
2022/05/01 14:41:12;;;;;;;367.77;206.27;;;;;;;;;;5072437;28;20444;-72
2022/05/01 14:46:59;;;;;;;333.23;205.60;;;;;;;;;;5062114;28;20448;-72
2022/05/01 14:49:37;;;;;;;300.87;218.60;;;;;;;;;;5072272;28;20490;-73
2022/05/01 14:52:06;;;;;;;313.87;214.97;;;;;;;;;;5073877;28;20506;-72
2022/05/01 14:54:36;;;;;;;320.10;233.30;;;;;;;;;;5074246;28;20581;-72
2022/05/01 14:57:10;;;;;;;300.70;189.73;;;;;;;;;;5073750;28;21103;-72
2022/05/01 15:08:10;;;;;;;273.73;194.63;;;;;;;;;;5073663;28;20470;-73
2022/05/01 15:10:38;;;;;;;253.80;185.30;;;;;;;;;;5073558;28;20491;-72
2022/05/01 15:13:10;;;;;;;300.53;210.83;;;;;;;;;;5073957;28;20558;-72
2022/05/01 15:15:52;;;;;;;294.80;221.47;;;;;;;;;;5072303;28;20445;-70
2022/05/01 15:18:22;;;;;;;292.87;212.97;;;;;;;;;;5069045;28;20452;-72
2022/05/01 15:21:02;;;;;;;338.80;208.43;;;;;;;;;;5087147;28;20459;-73
2022/05/01 15:23:48;;;;;;;285.00;240.20;;;;;;;;;;5073127;28;20628;-73
2022/05/01 15:26:24;;;;;;;333.93;198.80;;;;;;;;;;5072409;28;20506;-72
2022/05/01 15:28:54;;;;;;;278.00;212.63;;;;;;;;;;5073364;28;20452;-72
2022/05/01 15:31:22;;;;;;;334.43;222.70;;;;;;;;;;5085750;28;20509;-73
2022/05/01 15:34:09;;;;;;;334.37;204.67;;;;;;;;;;5073150;28;20464;-72
2022/05/01 15:36:38;;;;;;;286.33;196.33;;;;;;;;;;5073094;28;20514;-72
2022/05/01 15:39:07;;;;;;;310.27;207.13;;;;;;;;;;5072953;28;20452;-72
2022/05/01 15:41:38;;;;;;;261.03;186.27;;;;;;;;;;5074239;28;20453;-71
2022/05/01 15:44:21;;;;;;;308.00;213.40;;;;;;;;;;5076011;28;20762;-72
2022/05/01 15:47:18;;;;;;;317.33;201.93;;;;;;;;;;5072574;28;20518;-72